| time (UTC) | temp F | wind direction | speed knots | gust knots | rain 1hr in | rain 24hr in | rain mn in | humidity % | barometer mb |
| 20260505180608 | 53 | 135 | 0.0 | 0.0 | 0.00 | 0.00 | 0.00 | 80 | 1019.8 |
| 20260505175108 | 53 | 135 | 0.0 | 0.0 | 0.00 | 0.00 | 0.00 | 79 | 1019.8 |
| 20260505173608 | 53 | 135 | 0.0 | 0.0 | 0.00 | 0.00 | 0.00 | 79 | 1019.8 |
| 20260505172108 | 54 | 135 | 0.0 | 0.0 | 0.00 | 0.00 | 0.00 | 78 | 1020.0 |
| 20260505170608 | 54 | 135 | 0.0 | 0.0 | 0.00 | 0.00 | 0.00 | 77 | 1019.8 |
| 20260505165108 | 54 | 135 | 0.0 | 0.0 | 0.00 | 0.00 | 0.00 | 77 | 1019.9 |
| 20260505163608 | 54 | 135 | 0.0 | 0.0 | 0.00 | 0.00 | 0.00 | 77 | 1019.9 |
| 20260505162107 | 54 | 135 | 0.0 | 0.0 | 0.00 | 0.00 | 0.00 | 76 | 1020.0 |
| 20260505160607 | 55 | 135 | 0.0 | 0.0 | 0.00 | 0.00 | 0.00 | 75 | 1020.1 |
| 20260505152107 | 56 | 135 | 0.0 | 0.0 | 0.00 | 0.00 | 0.00 | 72 | 1020.2 |
| 20260505150607 | 56 | 135 | 0.0 | 0.0 | 0.00 | 0.00 | 0.00 | 72 | 1020.3 |
| 20260505140607 | 58 | 135 | 0.0 | 0.0 | 0.00 | 0.00 | 0.18 | 65 | 1020.2 |
| 20260505123606 | 63 | 158 | 0.0 | 0.0 | 0.00 | 0.00 | 0.18 | 52 | 1019.8 |
| 20260505122106 | 62 | 225 | 0.0 | 0.0 | 0.00 | 0.00 | 0.18 | 55 | 1019.8 |
| 20260505120606 | 61 | 158 | 0.0 | 0.0 | 0.00 | 0.00 | 0.18 | 59 | 1019.8 |
| 20260505115105 | 59 | 90 | 0.0 | 0.0 | 0.00 | 0.00 | 0.18 | 68 | 1019.6 |
| 20260505113605 | 60 | 90 | 0.0 | 0.0 | 0.00 | 0.00 | 0.18 | 68 | 1019.5 |
| 20260505112105 | 61 | 90 | 0.0 | 0.0 | 0.00 | 0.00 | 0.18 | 65 | 1019.4 |
| 20260505110605 | 61 | 90 | 0.0 | 0.0 | 0.00 | 0.00 | 0.18 | 64 | 1019.2 |
| 20260505102105 | 63 | 90 | 0.0 | 0.0 | 0.00 | 0.00 | 0.18 | 60 | 1019.0 |
| 20260505100605 | 65 | 90 | 0.0 | 0.0 | 0.00 | 0.00 | 0.18 | 57 | 1018.6 |
| 20260505095105 | 68 | 90 | 0.0 | 0.0 | 0.00 | 0.00 | 0.18 | 54 | 1018.5 |
| 20260505093605 | 71 | 90 | 0.0 | 0.0 | 0.00 | 0.00 | 0.18 | 49 | 1018.4 |
| 20260505092104 | 70 | 90 | 0.0 | 0.0 | 0.00 | 0.00 | 0.18 | 50 | 1018.4 |
| 20260505090604 | 69 | 22 | 0.0 | 0.0 | 0.00 | 0.00 | 0.18 | 50 | 1018.3 |
| 20260505085104 | 70 | 22 | 0.0 | 0.0 | 0.00 | 0.00 | 0.18 | 49 | 1018.2 |
| 20260505083604 | 71 | 45 | 0.0 | 0.0 | 0.00 | 0.00 | 0.18 | 47 | 1018.1 |
| 20260505082104 | 72 | 22 | 0.0 | 0.0 | 0.00 | 0.00 | 0.18 | 46 | 1018.0 |
| 20260505080604 | 72 | 22 | 0.0 | 0.0 | 0.00 | 0.00 | 0.18 | 45 | 1017.9 |
| 20260505075104 | 72 | 22 | 0.0 | 0.0 | 0.00 | 0.00 | 0.18 | 45 | 1017.9 |
| 20260505073604 | 73 | 22 | 0.0 | 0.0 | 0.00 | 0.00 | 0.18 | 44 | 1017.9 |
| 20260505072104 | 72 | 31 | 0.0 | 0.0 | 0.00 | 0.00 | 0.18 | 44 | 1017.9 |
| 20260505070604 | 72 | 22 | 0.0 | 0.0 | 0.00 | 0.00 | 0.18 | 45 | 1017.9 |
| 20260505065103 | 72 | 39 | 0.0 | 0.0 | 0.00 | 0.00 | 0.18 | 46 | 1018.0 |
| 20260505063603 | 72 | 22 | 0.0 | 0.0 | 0.00 | 0.00 | 0.18 | 47 | 1017.9 |
| 20260505062103 | 72 | 0 | 0.0 | 0.0 | 0.00 | 0.00 | 0.18 | 47 | 1018.1 |
| 20260505060603 | 71 | 45 | 0.0 | 0.0 | 0.00 | 0.00 | 0.18 | 50 | 1018.2 |
| 20260505055103 | 71 | 22 | 0.0 | 0.0 | 0.00 | 0.06 | 0.18 | 49 | 1018.4 |
| 20260505053603 | 71 | 36 | 0.0 | 0.0 | 0.00 | 0.06 | 0.18 | 52 | 1018.5 |
| 20260505052103 | 70 | 356 | 0.0 | 0.0 | 0.00 | 0.06 | 0.18 | 54 | 1018.7 |
| 20260505050603 | 69 | 315 | 0.0 | 0.0 | 0.00 | 0.06 | 0.18 | 54 | 1019.0 |
| 20260505040602 | 67 | 0 | 0.0 | 0.0 | 0.00 | 0.06 | 0.18 | 57 | 1019.4 |
| 20260505035102 | 67 | 332 | 0.0 | 0.0 | 0.00 | 0.06 | 0.18 | 57 | 1019.6 |
| 20260505033602 | 67 | 315 | 0.0 | 0.0 | 0.00 | 0.06 | 0.18 | 59 | 1019.7 |
| 20260505032102 | 67 | 315 | 0.0 | 0.0 | 0.00 | 0.06 | 0.18 | 58 | 1019.9 |
| 20260505030602 | 67 | 315 | 0.0 | 0.0 | 0.00 | 0.06 | 0.18 | 57 | 1020.0 |
| 20260505025330 | 67 | 22 | 0.0 | 0.0 | 0.00 | 0.06 | 0.18 | 57 | 1020.1 |
| 20260505023830 | 67 | 315 | 0.0 | 0.0 | 0.00 | 0.06 | 0.18 | 56 | 1020.3 |
| 20260505022330 | 67 | 22 | 0.0 | 0.0 | 0.00 | 0.06 | 0.18 | 49 | 1020.5 |
| 20260505020829 | 66 | 36 | 0.0 | 0.0 | 0.00 | 0.06 | 0.18 | 50 | 1020.4 |
| 20260505015329 | 66 | 24 | 0.0 | 0.0 | 0.00 | 0.06 | 0.18 | 52 | 1020.6 |
| 20260505013829 | 65 | 22 | 0.0 | 0.0 | 0.00 | 0.06 | 0.18 | 56 | 1020.6 |
| 20260505012329 | 64 | 22 | 0.0 | 0.0 | 0.00 | 0.06 | 0.18 | 59 | 1020.7 |
| 20260505010829 | 63 | 22 | 0.0 | 0.0 | 0.00 | 0.06 | 0.18 | 62 | 1020.8 |
| 20260505005329 | 62 | 44 | 0.0 | 0.0 | 0.00 | 0.06 | 0.18 | 64 | 1021.0 |
| 20260505003829 | 62 | 45 | 0.0 | 0.0 | 0.00 | 0.06 | 0.18 | 67 | 1021.1 |
| 20260505002329 | 60 | 22 | 0.0 | 0.0 | 0.00 | 0.06 | 0.18 | 68 | 1021.2 |
| 20260505000829 | 60 | 45 | 0.0 | 0.0 | 0.00 | 0.06 | 0.18 | 71 | 1021.0 |
| 20260504235328 | 59 | 45 | 0.0 | 0.0 | 0.00 | 0.06 | 0.18 | 74 | 1021.1 |
| 20260504233828 | 58 | 68 | 0.0 | 0.0 | 0.00 | 0.06 | 0.18 | 75 | 1021.1 |
| 20260504232328 | 58 | 112 | 0.0 | 0.0 | 0.00 | 0.06 | 0.18 | 79 | 1021.2 |
| 20260504230828 | 57 | 112 | 0.0 | 0.0 | 0.00 | 0.06 | 0.18 | 79 | 1021.2 |
| 20260504225328 | 56 | 180 | 0.0 | 0.0 | 0.00 | 0.06 | 0.18 | 79 | 1021.2 |
| 20260504223828 | 55 | 202 | 0.0 | 0.0 | 0.00 | 0.06 | 0.18 | 81 | 1021.2 |
| 20260504222328 | 54 | 190 | 0.0 | 0.0 | 0.00 | 0.06 | 0.18 | 84 | 1021.1 |
| 20260504220828 | 52 | 202 | 0.0 | 0.0 | 0.00 | 0.06 | 0.18 | 85 | 1021.1 |
| 20260504215328 | 51 | 202 | 0.0 | 0.0 | 0.00 | 0.06 | 0.18 | 88 | 1020.9 |
| 20260504213828 | 50 | 248 | 0.0 | 0.0 | 0.00 | 0.06 | 0.18 | 88 | 1020.8 |
| 20260504212327 | 49 | 248 | 0.0 | 0.0 | 0.00 | 0.06 | 0.18 | 89 | 1020.8 |
| 20260504210827 | 49 | 248 | 0.0 | 0.0 | 0.00 | 0.06 | 0.18 | 88 | 1020.6 |
| 20260504205327 | 48 | 248 | 0.0 | 0.0 | 0.00 | 0.06 | 0.18 | 88 | 1020.3 |
| 20260504203827 | 48 | 248 | 0.0 | 0.0 | 0.00 | 0.06 | 0.18 | 88 | 1020.1 |
| 20260504202327 | 48 | 248 | 0.0 | 0.0 | 0.00 | 0.06 | 0.18 | 88 | 1020.0 |
| 20260504200827 | 48 | 248 | 0.0 | 0.0 | 0.00 | 0.06 | 0.18 | 87 | 1019.8 |
| 20260504195327 | 49 | 248 | 0.0 | 0.0 | 0.00 | 0.06 | 0.18 | 87 | 1019.6 |
| 20260504193827 | 49 | 248 | 0.0 | 0.0 | 0.00 | 0.06 | 0.18 | 87 | 1019.5 |
| 20260504192327 | 49 | 248 | 0.0 | 0.0 | 0.00 | 0.06 | 0.18 | 86 | 1019.2 |
| 20260504190827 | 49 | 248 | 0.0 | 0.0 | 0.00 | 0.06 | 0.18 | 86 | 1019.2 |
| 20260504185326 | 49 | 248 | 0.0 | 0.0 | 0.00 | 0.06 | 0.18 | 86 | 1019.0 |
| 20260504183826 | 50 | 248 | 0.0 | 0.0 | 0.00 | 0.06 | 0.18 | 86 | 1018.9 |
| 20260504182326 | 50 | 248 | 0.0 | 0.0 | 0.00 | 0.06 | 0.18 | 86 | 1018.8 |